createdAt,value
2022-12-27T00:00:38.775Z,0.67
2022-12-27T00:03:06.283Z,0.64
2022-12-27T00:05:33.745Z,0.64
2022-12-27T00:08:01.183Z,0.61
2022-12-27T00:10:28.766Z,0.64
2022-12-27T00:12:56.218Z,0.60
2022-12-27T00:15:23.658Z,0.63
2022-12-27T00:17:52.464Z,0.65
2022-12-27T00:20:19.917Z,0.72
2022-12-27T00:22:47.359Z,0.72
2022-12-27T00:25:14.809Z,0.73
2022-12-27T00:27:42.316Z,0.75
2022-12-27T00:30:10.567Z,0.78
2022-12-27T00:32:38.027Z,0.82
2022-12-27T00:35:07.692Z,0.80
2022-12-27T00:37:35.163Z,0.81
2022-12-27T00:40:02.662Z,0.84
2022-12-27T00:42:30.176Z,0.87
2022-12-27T00:44:57.609Z,0.86
2022-12-27T00:47:25.051Z,0.88
2022-12-27T00:49:52.511Z,0.88
2022-12-27T00:52:21.292Z,0.92
2022-12-27T00:54:48.731Z,0.89
2022-12-27T00:57:16.176Z,0.90
2022-12-27T00:59:43.638Z,0.96
2022-12-27T01:02:11.103Z,0.95
2022-12-27T01:04:38.600Z,0.98
2022-12-27T01:07:06.051Z,1.01
2022-12-27T01:09:34.860Z,1.04
2022-12-27T01:12:02.397Z,1.01
2022-12-27T01:14:29.835Z,1.13
2022-12-27T01:16:57.311Z,1.14
2022-12-27T01:19:24.779Z,1.17
2022-12-27T01:21:52.259Z,1.27
2022-12-27T01:24:19.818Z,1.24
2022-12-27T01:26:48.650Z,1.19
2022-12-27T01:29:16.308Z,1.15
2022-12-27T01:31:43.815Z,1.15
2022-12-27T01:34:11.446Z,1.14
2022-12-27T01:36:39.616Z,1.10
2022-12-27T01:39:08.326Z,0.98
2022-12-27T01:41:55.296Z,1.08
2022-12-27T01:44:50.202Z,1.15
2022-12-27T01:47:32.568Z,1.12
2022-12-27T01:50:07.445Z,1.13
2022-12-27T01:52:40.399Z,1.10
2022-12-27T01:55:16.386Z,1.16
2022-12-27T01:57:44.009Z,1.16
2022-12-27T02:00:14.259Z,1.14
2022-12-27T02:02:42.025Z,1.16
2022-12-27T02:05:13.545Z,1.23
2022-12-27T02:07:48.791Z,1.28
2022-12-27T02:10:17.317Z,1.23
2022-12-27T02:12:44.876Z,1.17
2022-12-27T02:15:13.769Z,1.27
2022-12-27T02:17:41.328Z,1.09
2022-12-27T02:20:13.461Z,1.25
2022-12-27T02:23:49.593Z,1.29
2022-12-27T02:26:49.236Z,1.25
2022-12-27T02:29:39.671Z,1.06
2022-12-27T02:32:10.688Z,1.20
2022-12-27T02:34:45.996Z,1.27
2022-12-27T02:37:14.351Z,1.33
2022-12-27T02:39:45.551Z,1.35
2022-12-27T02:42:32.413Z,1.40
2022-12-27T02:45:19.785Z,1.40
2022-12-27T02:48:06.687Z,1.26
2022-12-27T02:51:03.488Z,1.34
2022-12-27T02:53:44.610Z,1.43
2022-12-27T02:56:42.844Z,1.37
2022-12-27T02:59:29.348Z,1.47
2022-12-27T03:02:43.891Z,1.38
2022-12-27T03:05:20.057Z,1.47
2022-12-27T03:07:52.302Z,1.42
2022-12-27T03:10:48.640Z,1.55
2022-12-27T03:13:50.521Z,1.56
2022-12-27T03:16:23.855Z,1.55
2022-12-27T03:19:03.140Z,1.50
2022-12-27T03:21:50.871Z,1.50
2022-12-27T03:24:38.150Z,1.48
2022-12-27T03:27:10.327Z,1.45
2022-12-27T03:29:56.337Z,1.46
2022-12-27T03:32:42.550Z,1.48
2022-12-27T03:35:15.829Z,1.58
2022-12-27T03:38:05.168Z,1.61
2022-12-27T03:41:04.823Z,1.60
2022-12-27T03:43:31.947Z,1.63
2022-12-27T03:46:26.599Z,1.67
2022-12-27T03:49:10.638Z,1.71
2022-12-27T03:51:43.856Z,1.75
2022-12-27T03:54:16.415Z,1.75
2022-12-27T03:56:43.867Z,1.72
2022-12-27T03:59:13.122Z,1.76
2022-12-27T04:01:42.266Z,1.78
2022-12-27T04:04:09.801Z,1.72
2022-12-27T04:06:37.309Z,1.78
2022-12-27T04:09:23.701Z,1.82
2022-12-27T04:12:08.996Z,1.76
2022-12-27T04:14:54.117Z,1.77
2022-12-27T04:17:39.358Z,1.66
2022-12-27T04:20:24.602Z,1.71
2022-12-27T04:23:09.866Z,1.75
2022-12-27T04:25:56.438Z,1.74
2022-12-27T04:28:41.788Z,1.62
2022-12-27T04:31:27.261Z,1.63
2022-12-27T04:34:12.185Z,1.60
2022-12-27T04:36:39.651Z,1.47
2022-12-27T04:39:07.307Z,1.42
2022-12-27T04:41:53.580Z,1.34
2022-12-27T04:44:38.852Z,1.43
2022-12-27T04:47:24.138Z,1.43
2022-12-27T04:50:09.351Z,1.43
2022-12-27T04:52:54.543Z,1.35
2022-12-27T04:55:24.777Z,1.29
2022-12-27T04:57:53.591Z,1.27
2022-12-27T05:00:40.701Z,1.24
2022-12-27T05:03:13.886Z,1.27
2022-12-27T05:05:43.394Z,1.28
2022-12-27T05:08:29.753Z,1.29
2022-12-27T05:11:14.926Z,1.26
2022-12-27T05:14:06.876Z,1.12
2022-12-27T05:16:37.135Z,1.18
2022-12-27T05:19:05.673Z,1.15
2022-12-27T05:21:36.328Z,1.14
2022-12-27T05:24:21.324Z,1.25
2022-12-27T05:26:49.370Z,1.15
2022-12-27T05:29:18.199Z,1.26
2022-12-27T05:31:45.711Z,1.31
2022-12-27T05:34:13.185Z,1.35
2022-12-27T05:36:40.636Z,1.37
2022-12-27T05:39:08.070Z,1.47
2022-12-27T05:41:35.500Z,1.47
2022-12-27T05:44:07.174Z,1.52
2022-12-27T05:46:36.537Z,1.52
2022-12-27T05:49:04.192Z,1.54
2022-12-27T05:51:31.725Z,1.57
2022-12-27T05:53:59.260Z,1.55
2022-12-27T05:56:26.723Z,1.53
2022-12-27T05:58:54.772Z,1.53
2022-12-27T06:01:22.404Z,1.55
2022-12-27T06:03:51.207Z,1.52
2022-12-27T06:06:18.652Z,1.54
2022-12-27T06:08:46.173Z,1.47
2022-12-27T06:11:15.331Z,1.43
2022-12-27T06:13:44.182Z,1.44
2022-12-27T06:16:13.460Z,1.49
2022-12-27T06:18:42.461Z,1.47
2022-12-27T06:21:13.505Z,1.49
2022-12-27T06:23:42.699Z,1.51
2022-12-27T06:26:13.615Z,1.54
2022-12-27T06:28:41.177Z,1.53
2022-12-27T06:31:08.716Z,1.56
2022-12-27T06:33:36.215Z,1.54
2022-12-27T06:36:07.166Z,1.51
2022-12-27T06:38:36.092Z,1.38
2022-12-27T06:41:03.718Z,1.27
2022-12-27T06:43:31.510Z,1.33
2022-12-27T06:46:00.234Z,1.24
2022-12-27T06:48:28.100Z,1.39
2022-12-27T06:50:56.181Z,1.46
2022-12-27T06:53:23.673Z,1.49
2022-12-27T06:55:52.438Z,1.59
2022-12-27T06:58:19.865Z,1.58
2022-12-27T07:00:47.389Z,1.61
2022-12-27T07:03:14.912Z,1.64
2022-12-27T07:05:42.350Z,1.72
2022-12-27T07:08:09.754Z,1.78
2022-12-27T07:10:37.322Z,1.79
2022-12-27T07:13:06.088Z,1.79
2022-12-27T07:15:33.506Z,1.89
2022-12-27T07:18:00.997Z,1.92
2022-12-27T07:20:28.440Z,1.91
2022-12-27T07:22:58.708Z,1.93
2022-12-27T07:25:26.228Z,1.92
2022-12-27T07:27:54.308Z,1.72
2022-12-27T07:30:23.400Z,1.93
2022-12-27T07:32:50.856Z,1.90
2022-12-27T07:35:18.289Z,1.98
2022-12-27T07:37:45.735Z,1.95
2022-12-27T07:40:13.397Z,1.96
2022-12-27T07:42:41.646Z,1.94
2022-12-27T07:45:09.607Z,2.05
2022-12-27T07:47:38.383Z,2.03
2022-12-27T07:50:06.544Z,2.03
2022-12-27T07:52:34.080Z,1.98
2022-12-27T07:55:01.563Z,1.98
2022-12-27T07:57:29.129Z,1.97
2022-12-27T07:59:56.562Z,1.94
2022-12-27T08:02:24.132Z,2.03
2022-12-27T08:04:53.012Z,2.06
2022-12-27T08:07:21.031Z,2.02
2022-12-27T08:09:49.285Z,1.96
2022-12-27T08:12:17.050Z,1.96
2022-12-27T08:14:45.588Z,1.92
2022-12-27T08:17:17.115Z,1.95
2022-12-27T08:19:44.563Z,1.87
2022-12-27T08:22:13.480Z,1.84
2022-12-27T08:24:41.504Z,1.88
2022-12-27T08:27:10.080Z,1.89
2022-12-27T08:29:37.721Z,1.93
2022-12-27T08:32:05.896Z,1.90
2022-12-27T08:34:33.368Z,1.90
2022-12-27T08:37:00.785Z,1.94
2022-12-27T08:39:30.094Z,1.91
2022-12-27T08:41:57.553Z,1.92
2022-12-27T08:44:25.486Z,1.90
2022-12-27T08:46:52.980Z,1.94
2022-12-27T08:49:20.436Z,1.97
2022-12-27T08:51:47.886Z,2.01
2022-12-27T08:54:15.419Z,2.08
2022-12-27T08:56:44.198Z,2.14
2022-12-27T08:59:11.633Z,2.15
2022-12-27T09:01:39.207Z,2.16
2022-12-27T09:04:06.741Z,2.16
2022-12-27T09:06:34.354Z,2.06
2022-12-27T09:09:01.817Z,2.16
2022-12-27T09:11:31.251Z,2.20
2022-12-27T09:14:01.783Z,2.20
2022-12-27T09:16:30.836Z,2.18
2022-12-27T09:18:59.613Z,2.19
2022-12-27T09:21:29.391Z,2.21
2022-12-27T09:23:57.359Z,2.18
2022-12-27T09:26:27.349Z,2.22
2022-12-27T09:28:55.122Z,2.27
2022-12-27T09:31:25.759Z,2.37
2022-12-27T09:33:54.003Z,2.43
2022-12-27T09:36:24.121Z,2.42
2022-12-27T09:38:55.060Z,2.43
2022-12-27T09:42:43.807Z,2.47
2022-12-27T09:44:35.338Z,2.48
2022-12-27T09:47:11.072Z,2.53
2022-12-27T09:49:40.659Z,2.56
2022-12-27T09:52:15.056Z,2.57
2022-12-27T09:54:59.454Z,2.58
2022-12-27T09:57:36.877Z,2.68
2022-12-27T10:00:08.025Z,2.70
2022-12-27T10:02:36.971Z,2.80
2022-12-27T10:05:22.023Z,2.88
2022-12-27T10:08:10.419Z,2.91
2022-12-27T10:10:43.250Z,2.88
2022-12-27T10:13:28.435Z,2.90
2022-12-27T10:16:08.908Z,2.88
2022-12-27T10:18:48.159Z,2.93
2022-12-27T10:21:20.988Z,2.94
2022-12-27T10:23:54.112Z,2.90
2022-12-27T10:26:22.406Z,2.92
2022-12-27T10:28:57.328Z,2.96
2022-12-27T10:31:26.496Z,2.88
2022-12-27T10:33:55.566Z,2.75
2022-12-27T10:36:26.016Z,2.72
2022-12-27T10:38:53.543Z,2.80
2022-12-27T10:41:30.915Z,2.81
2022-12-27T10:43:58.711Z,2.80
2022-12-27T10:46:32.400Z,2.81
2022-12-27T10:49:21.527Z,2.95
2022-12-27T10:51:51.989Z,3.00
2022-12-27T10:54:23.580Z,2.87
2022-12-27T10:56:51.059Z,3.09
2022-12-27T10:59:20.485Z,3.07
2022-12-27T11:01:49.883Z,3.13
2022-12-27T11:04:21.550Z,3.15
2022-12-27T11:06:51.386Z,3.14
2022-12-27T11:09:27.699Z,3.09
2022-12-27T11:12:13.645Z,3.19
2022-12-27T11:14:41.236Z,3.04
2022-12-27T11:17:10.668Z,3.12
2022-12-27T11:19:45.719Z,3.06
2022-12-27T11:22:13.504Z,3.22
2022-12-27T11:24:46.860Z,3.24
2022-12-27T11:27:24.048Z,3.33
2022-12-27T11:29:52.468Z,3.39
2022-12-27T11:32:23.683Z,3.42
2022-12-27T11:34:55.572Z,3.44
2022-12-27T11:37:26.401Z,3.58
2022-12-27T11:39:55.424Z,3.60
2022-12-27T11:42:30.165Z,3.62
2022-12-27T11:45:08.114Z,3.55
2022-12-27T11:47:42.482Z,3.51
2022-12-27T11:50:41.790Z,3.48
2022-12-27T11:53:56.603Z,3.48
2022-12-27T11:56:27.591Z,3.46
2022-12-27T11:59:20.336Z,3.58
2022-12-27T12:02:07.357Z,3.51
2022-12-27T12:05:14.351Z,3.53
2022-12-27T12:08:06.047Z,3.60
2022-12-27T12:10:46.680Z,3.69
2022-12-27T12:13:32.304Z,3.76
2022-12-27T12:16:27.108Z,3.76
2022-12-27T12:19:08.653Z,3.75
2022-12-27T12:21:45.510Z,3.81
2022-12-27T12:24:37.204Z,3.84
2022-12-27T12:27:20.056Z,3.83
2022-12-27T12:30:16.166Z,3.87
2022-12-27T12:32:59.289Z,3.96
2022-12-27T12:35:40.712Z,4.00
2022-12-27T12:38:20.890Z,3.98
2022-12-27T12:41:21.349Z,4.00
2022-12-27T12:44:04.162Z,4.00
2022-12-27T12:46:39.353Z,4.04
2022-12-27T12:49:28.006Z,4.01
2022-12-27T12:52:08.111Z,4.10
2022-12-27T12:54:56.726Z,4.10
2022-12-27T12:57:39.621Z,3.99
2022-12-27T13:00:22.786Z,3.99
2022-12-27T13:03:17.257Z,4.01
2022-12-27T13:05:51.105Z,3.95
2022-12-27T13:08:30.211Z,3.86
2022-12-27T13:11:18.354Z,3.81
2022-12-27T13:13:57.829Z,3.66
2022-12-27T13:16:33.353Z,3.79
2022-12-27T13:19:12.857Z,3.82
2022-12-27T13:21:53.322Z,3.84
2022-12-27T13:24:32.126Z,3.81
2022-12-27T13:27:14.235Z,3.73
2022-12-27T13:30:00.415Z,3.74
2022-12-27T13:32:42.881Z,3.74
2022-12-27T13:35:32.436Z,3.69
2022-12-27T13:38:15.545Z,3.60
2022-12-27T13:41:08.459Z,3.50
2022-12-27T13:43:54.922Z,3.33
2022-12-27T13:46:43.237Z,3.35
2022-12-27T13:49:32.592Z,3.29
2022-12-27T13:52:12.297Z,3.25
2022-12-27T13:55:12.222Z,3.27
2022-12-27T13:58:03.137Z,3.18
2022-12-27T14:00:36.190Z,3.06
2022-12-27T14:03:48.416Z,3.16
2022-12-27T14:06:59.400Z,3.16
2022-12-27T14:10:04.289Z,3.12
2022-12-27T14:12:54.885Z,3.14
2022-12-27T14:15:26.826Z,3.09
2022-12-27T14:18:11.050Z,3.09
2022-12-27T14:20:53.586Z,3.08
2022-12-27T14:23:49.026Z,3.12
2022-12-27T14:26:47.391Z,3.10
2022-12-27T14:29:56.189Z,3.00
2022-12-27T14:32:46.318Z,3.00
2022-12-27T14:35:31.618Z,2.92
2022-12-27T14:38:36.592Z,2.84
2022-12-27T14:41:28.397Z,2.73
2022-12-27T14:44:36.668Z,2.75
2022-12-27T14:47:37.284Z,2.70
2022-12-27T14:50:51.728Z,2.71
2022-12-27T14:54:01.188Z,2.73
2022-12-27T14:56:34.457Z,2.63
2022-12-27T14:59:18.829Z,2.61
2022-12-27T15:02:04.152Z,2.65
2022-12-27T15:04:51.895Z,2.58
2022-12-27T15:07:42.926Z,2.59
2022-12-27T15:10:20.216Z,2.59
2022-12-27T15:12:57.374Z,2.51
2022-12-27T15:15:32.943Z,2.50
2022-12-27T15:18:19.190Z,2.52
2022-12-27T15:21:11.085Z,2.51
2022-12-27T15:23:51.664Z,2.49
2022-12-27T15:26:27.069Z,2.47
2022-12-27T15:29:34.194Z,2.44
2022-12-27T15:32:12.827Z,2.45
2022-12-27T15:35:01.413Z,2.38
2022-12-27T15:38:03.664Z,2.33
2022-12-27T15:40:56.937Z,2.34
2022-12-27T15:43:58.980Z,2.33
2022-12-27T15:46:51.142Z,2.26
2022-12-27T15:49:39.312Z,2.25
2022-12-27T15:52:19.763Z,2.26
2022-12-27T15:55:18.145Z,2.17
2022-12-27T15:58:09.263Z,2.18
2022-12-27T16:00:37.591Z,2.15
2022-12-27T16:03:33.229Z,2.15
2022-12-27T16:06:01.869Z,2.06
2022-12-27T16:08:33.339Z,2.11
2022-12-27T16:11:01.882Z,2.09
2022-12-27T16:13:48.145Z,2.12
2022-12-27T16:16:55.843Z,2.04
2022-12-27T16:19:40.961Z,2.03
2022-12-27T16:22:31.738Z,2.00
2022-12-27T16:25:00.323Z,1.98
2022-12-27T16:27:32.583Z,1.95
2022-12-27T16:30:00.660Z,1.94
2022-12-27T16:32:29.095Z,1.86
2022-12-27T16:35:14.187Z,1.83
2022-12-27T16:37:45.355Z,1.83
2022-12-27T16:40:37.821Z,1.80
2022-12-27T16:43:45.555Z,1.82
2022-12-27T16:46:20.548Z,1.73
2022-12-27T16:49:08.584Z,1.71
2022-12-27T16:51:51.720Z,1.59
2022-12-27T16:54:32.376Z,1.59
2022-12-27T16:57:34.148Z,1.66
2022-12-27T17:00:03.996Z,1.64
2022-12-27T17:02:40.154Z,1.68
2022-12-27T17:05:36.295Z,1.65
2022-12-27T17:08:20.172Z,1.73
2022-12-27T17:11:23.492Z,1.78
2022-12-27T17:13:55.141Z,1.66
2022-12-27T17:16:25.881Z,1.85
2022-12-27T17:18:57.786Z,1.85
2022-12-27T17:21:30.640Z,1.85
2022-12-27T17:24:02.450Z,1.86
2022-12-27T17:26:59.113Z,1.88
2022-12-27T17:29:59.230Z,1.84
2022-12-27T17:32:47.535Z,1.83
2022-12-27T17:35:27.173Z,1.84
2022-12-27T17:38:08.316Z,1.83
2022-12-27T17:40:44.217Z,1.84
2022-12-27T17:43:53.850Z,1.83
2022-12-27T17:46:36.443Z,1.85
2022-12-27T17:49:05.900Z,1.87
2022-12-27T17:51:36.541Z,1.83
2022-12-27T17:54:41.478Z,1.87
2022-12-27T17:57:31.866Z,1.81
2022-12-27T18:00:05.168Z,1.82
2022-12-27T18:02:36.640Z,1.90
2022-12-27T18:05:08.212Z,1.97
2022-12-27T18:07:36.335Z,1.94
2022-12-27T18:10:06.973Z,1.98
2022-12-27T18:12:39.449Z,1.89
2022-12-27T18:15:13.972Z,1.96
2022-12-27T18:17:47.411Z,1.92
2022-12-27T18:20:28.488Z,1.88
2022-12-27T18:23:08.979Z,1.89
2022-12-27T18:25:40.918Z,1.80
2022-12-27T18:28:16.923Z,1.88
2022-12-27T18:30:57.199Z,1.67
2022-12-27T18:33:32.001Z,1.90
2022-12-27T18:36:05.876Z,1.73
2022-12-27T18:38:38.687Z,1.87
2022-12-27T18:41:09.860Z,1.94
2022-12-27T18:43:44.863Z,1.86
2022-12-27T18:46:18.118Z,1.84
2022-12-27T18:48:45.819Z,1.61
2022-12-27T18:51:13.652Z,1.63
2022-12-27T18:53:41.911Z,1.72
2022-12-27T18:56:29.071Z,1.75
2022-12-27T18:59:06.001Z,1.72
2022-12-27T19:01:42.300Z,1.73
2022-12-27T19:04:21.721Z,1.56
2022-12-27T19:06:55.343Z,1.71
2022-12-27T19:09:26.197Z,1.65
2022-12-27T19:11:55.821Z,1.62
2022-12-27T19:14:26.261Z,1.55
2022-12-27T19:16:57.012Z,1.63
2022-12-27T19:19:27.332Z,1.61
2022-12-27T19:21:55.276Z,1.59
2022-12-27T19:24:37.506Z,1.61
2022-12-27T19:27:17.368Z,1.45
2022-12-27T19:29:51.054Z,1.62
2022-12-27T19:32:32.372Z,1.58
2022-12-27T19:35:02.701Z,1.33
2022-12-27T19:37:32.546Z,1.44
2022-12-27T19:40:00.345Z,1.50
2022-12-27T19:42:31.886Z,1.56
2022-12-27T19:45:00.958Z,1.14
2022-12-27T19:47:28.987Z,1.39
2022-12-27T19:49:59.171Z,1.42
2022-12-27T19:52:27.785Z,1.56
2022-12-27T19:55:02.538Z,1.40
2022-12-27T19:57:30.298Z,1.48
2022-12-27T19:59:58.083Z,1.51
2022-12-27T20:02:29.369Z,1.51
2022-12-27T20:04:57.137Z,1.48
2022-12-27T20:07:26.136Z,1.28
2022-12-27T20:09:54.050Z,1.55
2022-12-27T20:12:21.732Z,1.48
2022-12-27T20:14:49.685Z,1.62
2022-12-27T20:17:17.364Z,1.44
2022-12-27T20:19:46.507Z,1.45
2022-12-27T20:22:14.265Z,1.44
2022-12-27T20:24:46.382Z,1.42
2022-12-27T20:27:14.149Z,1.63
2022-12-27T20:29:41.894Z,1.68
2022-12-27T20:32:09.479Z,1.67
2022-12-27T20:34:37.196Z,1.57
2022-12-27T20:37:08.927Z,1.69
2022-12-27T20:39:36.636Z,1.56
2022-12-27T20:42:04.393Z,1.81
2022-12-27T20:44:32.314Z,1.78
2022-12-27T20:46:59.829Z,1.85
2022-12-27T20:49:27.502Z,1.79
2022-12-27T20:51:55.019Z,1.87
2022-12-27T20:54:24.242Z,1.83
2022-12-27T20:56:51.997Z,1.81
2022-12-27T20:59:19.548Z,1.80
2022-12-27T21:01:51.609Z,1.77
2022-12-27T21:04:22.496Z,1.75
2022-12-27T21:06:49.965Z,1.68
2022-12-27T21:09:17.438Z,1.82
2022-12-27T21:11:46.250Z,1.80
2022-12-27T21:14:13.817Z,1.86
2022-12-27T21:16:41.283Z,1.86
2022-12-27T21:19:08.753Z,1.82
2022-12-27T21:21:38.306Z,1.89
2022-12-27T21:24:07.960Z,1.87
2022-12-27T21:26:37.610Z,1.92
2022-12-27T21:29:09.022Z,1.98
2022-12-27T21:31:37.116Z,1.97
2022-12-27T21:34:06.933Z,1.98
2022-12-27T21:36:34.694Z,1.99
2022-12-27T21:39:02.769Z,2.03
2022-12-27T21:41:31.715Z,2.04
2022-12-27T21:43:59.344Z,2.05
2022-12-27T21:46:30.076Z,2.09
2022-12-27T21:48:59.107Z,2.08
2022-12-27T21:51:28.098Z,2.09
2022-12-27T21:53:56.028Z,2.10
2022-12-27T21:56:24.055Z,2.13
2022-12-27T21:58:52.135Z,2.13
2022-12-27T22:01:22.504Z,2.13
2022-12-27T22:03:53.452Z,2.22
2022-12-27T22:06:23.220Z,2.20
2022-12-27T22:08:51.990Z,2.18
2022-12-27T22:11:21.346Z,2.20
2022-12-27T22:13:48.975Z,2.24
2022-12-27T22:16:18.370Z,2.23
2022-12-27T22:18:46.597Z,2.29
2022-12-27T22:21:17.265Z,2.27
2022-12-27T22:23:46.755Z,2.33
2022-12-27T22:26:16.283Z,2.32
2022-12-27T22:28:44.241Z,2.30
2022-12-27T22:31:14.370Z,2.29
2022-12-27T22:33:42.143Z,2.28
2022-12-27T22:36:12.533Z,2.30
2022-12-27T22:38:41.350Z,2.23
2022-12-27T22:41:11.760Z,2.32
2022-12-27T22:43:39.335Z,2.35
2022-12-27T22:46:08.144Z,2.38
2022-12-27T22:48:36.026Z,2.39
2022-12-27T22:51:08.580Z,2.36
2022-12-27T22:53:36.341Z,2.34
2022-12-27T22:56:05.383Z,2.11
2022-12-27T22:58:33.194Z,2.23
2022-12-27T23:01:00.765Z,2.42
2022-12-27T23:03:28.531Z,2.44
2022-12-27T23:05:59.892Z,2.46
2022-12-27T23:08:27.814Z,2.45
2022-12-27T23:10:55.713Z,2.33
2022-12-27T23:13:26.229Z,2.52
2022-12-27T23:15:57.776Z,2.51
2022-12-27T23:18:25.392Z,2.56
2022-12-27T23:21:21.382Z,2.59
2022-12-27T23:23:40.460Z,2.62
2022-12-27T23:26:10.433Z,2.50
2022-12-27T23:28:41.268Z,2.64
2022-12-27T23:31:10.570Z,2.60
2022-12-27T23:33:38.079Z,2.67
2022-12-27T23:36:06.436Z,2.69
2022-12-27T23:38:34.023Z,2.69
2022-12-27T23:41:03.401Z,2.59
2022-12-27T23:43:51.726Z,2.70
2022-12-27T23:46:23.559Z,2.69
2022-12-27T23:48:51.471Z,2.77
2022-12-27T23:51:18.972Z,2.60
2022-12-27T23:53:46.481Z,2.76
2022-12-27T23:56:15.798Z,2.76
2022-12-27T23:58:44.180Z,2.86
